Time;durP1;ratioP1;P1;durP2;ratioP2;P2;SDS_P1;SDS_P2;PMS_P1;PMS_P2;Temp;Humidity;BMP_temperature;BMP_pressure;BME280_temperature;BME280_humidity;BME280_pressure;Samples;Min_cycle;Max_cycle;Signal;HPM_P1;HPM_P2
2021/10/17 00:01:28;;;;;;;5.13;4.60;;;;;;;15.08;57.87;100391.19;5077949;28;20478;-71
2021/10/17 00:03:56;;;;;;;4.63;4.22;;;;;;;15.15;57.84;100396.84;5078919;28;20059;-72
2021/10/17 00:06:28;;;;;;;6.40;4.32;;;;;;;15.13;57.62;100388.03;5078762;28;20032;-72
2021/10/17 00:08:56;;;;;;;6.80;4.30;;;;;;;15.12;57.67;100391.22;5096920;28;20067;-70
2021/10/17 00:11:22;;;;;;;4.05;3.65;;;;;;;15.20;57.38;100399.28;5079212;28;20024;-72
2021/10/17 00:13:48;;;;;;;4.22;3.83;;;;;;;15.10;58.03;100394.41;5079024;28;20436;-71
2021/10/17 00:16:14;;;;;;;4.90;3.97;;;;;;;15.10;58.21;100394.41;5078591;28;20028;-72
2021/10/17 00:18:40;;;;;;;4.70;4.30;;;;;;;15.19;58.02;100397.69;5078491;28;20114;-71
2021/10/17 00:21:06;;;;;;;4.90;3.80;;;;;;;15.09;58.47;100403.22;5078512;28;20382;-72
2021/10/17 00:23:31;;;;;;;4.57;4.18;;;;;;;15.05;58.22;100403.19;5079038;28;20122;-70
2021/10/17 00:26:00;;;;;;;5.28;3.58;;;;;;;15.08;58.37;100399.63;5078920;28;20032;-70
2021/10/17 00:28:26;;;;;;;5.15;3.70;;;;;;;15.11;58.47;100406.41;5078548;28;20081;-72
2021/10/17 00:30:51;;;;;;;4.07;3.25;;;;;;;15.06;58.56;100403.97;5078551;28;20028;-71
2021/10/17 00:33:17;;;;;;;4.20;3.80;;;;;;;15.07;58.81;100409.19;5077975;28;20060;-71
2021/10/17 00:35:43;;;;;;;3.92;3.50;;;;;;;15.05;58.60;100400.38;5078672;28;20063;-70
2021/10/17 00:38:08;;;;;;;5.57;4.85;;;;;;;15.12;58.22;100396.81;5078396;28;20077;-71
2021/10/17 00:40:34;;;;;;;7.28;3.83;;;;;;;15.11;58.16;100398.03;5077921;28;20031;-70
2021/10/17 00:43:01;;;;;;;4.18;3.13;;;;;;;15.07;58.53;100395.19;5077993;28;20028;-72
2021/10/17 00:45:32;;;;;;;4.82;3.47;;;;;;;14.98;58.49;100397.53;5078404;28;20093;-72
2021/10/17 00:48:00;;;;;;;6.43;4.07;;;;;;;14.96;58.73;100399.91;5077930;28;20063;-71
2021/10/17 00:50:26;;;;;;;3.83;3.33;;;;;;;15.05;58.35;100407.97;5078270;28;20437;-71
2021/10/17 00:52:52;;;;;;;4.10;3.42;;;;;;;15.01;58.74;100401.53;5077893;28;20039;-71
2021/10/17 00:55:19;;;;;;;3.65;3.05;;;;;;;15.01;58.11;100407.13;5077861;28;20058;-71
2021/10/17 00:57:46;;;;;;;4.18;3.28;;;;;;;15.07;58.24;100405.59;5078386;28;20062;-71
2021/10/17 01:00:14;;;;;;;4.03;3.03;;;;;;;15.04;57.93;100401.56;5078041;28;20031;-72
2021/10/17 01:02:40;;;;;;;3.83;3.20;;;;;;;15.05;58.19;100407.97;5078325;28;20138;-71
2021/10/17 01:05:13;;;;;;;3.35;3.05;;;;;;;15.02;58.13;100403.97;5077977;28;20020;-71
2021/10/17 01:07:39;;;;;;;4.22;2.80;;;;;;;14.99;58.20;100401.94;5078499;28;20035;-70
2021/10/17 01:10:05;;;;;;;3.30;3.00;;;;;;;15.07;57.76;100388.78;5077080;28;20418;-71
2021/10/17 01:12:31;;;;;;;3.67;2.63;;;;;;;15.10;57.68;100400.03;5077275;28;20066;-71
2021/10/17 01:14:56;;;;;;;3.55;3.10;;;;;;;14.99;58.19;100393.53;5077508;28;20181;-71
2021/10/17 01:17:22;;;;;;;6.57;2.72;;;;;;;15.05;57.94;100397.56;5077464;28;20423;-71
2021/10/17 01:19:48;;;;;;;5.07;2.80;;;;;;;14.97;58.31;100392.28;5077567;28;20032;-71
2021/10/17 01:22:14;;;;;;;3.90;3.30;;;;;;;14.93;58.42;100395.88;5077368;28;20481;-71
2021/10/17 01:24:40;;;;;;;4.57;3.03;;;;;;;14.91;58.46;100398.28;5077402;28;20066;-71
2021/10/17 01:27:08;;;;;;;2.95;2.70;;;;;;;15.02;57.90;100395.56;5077361;28;20028;-72
2021/10/17 01:29:34;;;;;;;5.35;3.22;;;;;;;14.90;58.75;100390.25;5077590;28;20040;-72
2021/10/17 01:32:00;;;;;;;3.20;2.80;;;;;;;14.85;58.53;100382.19;5077775;28;20038;-71
2021/10/17 01:34:29;;;;;;;4.60;3.13;;;;;;;14.83;58.70;100390.19;5077110;28;20024;-71
2021/10/17 01:36:54;;;;;;;6.18;2.88;;;;;;;14.91;58.54;100389.03;5077663;28;20355;-71
2021/10/17 01:39:22;;;;;;;2.65;2.40;;;;;;;14.88;58.19;100389.84;5077106;28;20035;-71
2021/10/17 01:41:48;;;;;;;2.80;2.55;;;;;;;14.91;58.30;100386.25;5060906;28;20024;-71
2021/10/17 01:44:24;;;;;;;3.63;2.63;;;;;;;14.94;58.11;100382.69;5076907;28;20493;-71
2021/10/17 01:46:51;;;;;;;2.95;2.65;;;;;;;14.89;58.28;100383.84;5060517;28;20089;-71
2021/10/17 01:49:16;;;;;;;3.83;2.42;;;;;;;14.85;58.33;100382.19;5077562;28;20340;-71
2021/10/17 01:51:42;;;;;;;3.03;2.60;;;;;;;14.83;58.70;100379.78;5076760;28;20038;-71
2021/10/17 01:54:08;;;;;;;3.72;2.75;;;;;;;14.87;58.65;100377.03;5077010;28;20043;-72
2021/10/17 01:56:35;;;;;;;3.17;2.83;;;;;;;14.84;58.54;100369.38;5076435;28;20444;-71
2021/10/17 01:59:01;;;;;;;3.70;2.80;;;;;;;14.83;58.45;100368.56;5076439;28;20028;-72
2021/10/17 02:01:27;;;;;;;5.40;3.05;;;;;;;14.84;58.66;100372.19;5076490;28;20123;-72
2021/10/17 02:03:53;;;;;;;3.20;2.88;;;;;;;14.83;58.58;100368.56;5076565;28;20058;-72
2021/10/17 02:06:21;;;;;;;3.92;3.13;;;;;;;14.94;58.03;100380.69;5076296;28;20040;-71
2021/10/17 02:08:47;;;;;;;5.95;3.00;;;;;;;14.89;58.07;100378.22;5076127;28;20048;-71
2021/10/17 02:11:18;;;;;;;3.72;3.22;;;;;;;14.83;58.02;100373.38;5076156;28;20464;-72
2021/10/17 02:13:44;;;;;;;3.95;3.17;;;;;;;14.78;58.77;100366.13;5076250;28;20028;-72
2021/10/17 02:16:09;;;;;;;3.83;3.17;;;;;;;14.83;58.44;100374.19;5076228;28;20096;-73
2021/10/17 02:18:37;;;;;;;4.65;3.42;;;;;;;14.84;58.16;100370.19;5076356;28;20035;-72
2021/10/17 02:21:03;;;;;;;3.65;3.35;;;;;;;14.77;58.57;100363.72;5076227;28;20024;-72
2021/10/17 02:23:30;;;;;;;3.28;2.78;;;;;;;14.76;58.53;100367.72;5075391;28;20031;-72
2021/10/17 02:25:55;;;;;;;3.25;2.92;;;;;;;14.88;57.83;100375.81;5076154;28;20035;-71
2021/10/17 02:28:21;;;;;;;4.00;3.13;;;;;;;14.88;58.00;100375.81;5076417;28;20035;-71
2021/10/17 02:30:48;;;;;;;3.88;3.33;;;;;;;14.80;58.06;100365.75;5076119;28;20028;-70
2021/10/17 02:33:13;;;;;;;4.10;3.00;;;;;;;14.73;58.55;100365.69;5076032;28;20076;-71
2021/10/17 02:35:39;;;;;;;3.22;2.92;;;;;;;14.66;58.92;100367.25;5076012;28;20048;-70
2021/10/17 02:38:05;;;;;;;4.15;2.65;;;;;;;14.66;58.85;100367.25;5075993;28;20036;-70
2021/10/17 02:40:30;;;;;;;4.32;3.05;;;;;;;14.68;58.65;100373.25;5076459;28;20020;-70
2021/10/17 02:42:57;;;;;;;3.22;2.92;;;;;;;14.67;58.96;100368.03;5075981;28;20394;-71
2021/10/17 02:45:25;;;;;;;3.22;2.85;;;;;;;14.65;58.98;100365.63;5076469;28;20024;-71
2021/10/17 02:47:51;;;;;;;3.40;3.10;;;;;;;14.61;58.33;100367.59;5076171;28;20032;-71
2021/10/17 02:50:17;;;;;;;3.85;2.70;;;;;;;14.53;58.38;100368.69;5076447;28;20024;-71
2021/10/17 02:52:43;;;;;;;3.88;2.67;;;;;;;14.52;58.70;100358.69;5076135;28;20511;-70
2021/10/17 02:55:09;;;;;;;4.25;2.85;;;;;;;14.56;58.76;100356.75;5075751;28;20059;-71
2021/10/17 02:57:35;;;;;;;2.97;2.70;;;;;;;14.61;58.94;100362.00;5075729;28;20065;-70
2021/10/17 03:00:00;;;;;;;3.72;2.83;;;;;;;14.57;58.56;100363.94;5075649;28;20024;-71
2021/10/17 03:02:28;;;;;;;3.20;2.90;;;;;;;14.68;58.10;100362.03;5075827;28;20035;-71
2021/10/17 03:04:56;;;;;;;5.53;2.78;;;;;;;14.56;58.30;100365.13;5075729;28;20115;-71
2021/10/17 03:07:25;;;;;;;3.40;2.70;;;;;;;14.56;58.49;100365.13;5075687;28;20116;-71
2021/10/17 03:09:50;;;;;;;2.97;2.67;;;;;;;14.56;58.98;100364.34;5075201;28;20040;-71
2021/10/17 03:12:16;;;;;;;6.57;3.10;;;;;;;14.51;58.59;100368.28;5075436;28;20054;-70
2021/10/17 03:14:41;;;;;;;3.17;2.88;;;;;;;14.51;58.52;100357.09;5076099;28;20028;-71
2021/10/17 03:17:10;;;;;;;3.25;2.92;;;;;;;14.53;57.91;100360.28;5075554;28;20028;-72
2021/10/17 03:19:38;;;;;;;3.47;2.88;;;;;;;14.55;58.85;100357.94;5075767;28;20035;-71
2021/10/17 03:22:04;;;;;;;3.97;3.15;;;;;;;14.53;59.08;100351.91;5075526;28;20081;-70
2021/10/17 03:24:29;;;;;;;3.22;2.92;;;;;;;14.54;59.19;100347.94;5075489;28;20032;-71
2021/10/17 03:26:58;;;;;;;2.58;2.38;;;;;;;14.57;58.48;100349.13;5075498;28;20032;-71
2021/10/17 03:29:23;;;;;;;4.03;2.88;;;;;;;14.53;58.98;100351.91;5075412;28;20032;-71
2021/10/17 03:31:49;;;;;;;4.10;3.22;;;;;;;14.51;58.49;100362.69;5075409;28;20119;-71
2021/10/17 03:34:15;;;;;;;3.45;3.00;;;;;;;14.53;58.11;100354.69;5075968;28;20035;-71
2021/10/17 03:36:44;;;;;;;3.30;3.00;;;;;;;14.56;58.66;100359.53;5079513;28;20077;-70
2021/10/17 03:39:09;;;;;;;3.42;3.10;;;;;;;14.59;58.58;100352.34;5079287;28;20063;-72
2021/10/17 03:41:35;;;;;;;2.72;2.53;;;;;;;14.61;58.80;100364.78;5079129;28;20056;-71
2021/10/17 03:44:00;;;;;;;4.20;2.92;;;;;;;14.55;59.21;100360.72;5079789;28;20040;-71
2021/10/17 03:46:26;;;;;;;3.45;3.15;;;;;;;14.55;59.03;100352.34;5079464;28;20056;-71
2021/10/17 03:48:54;;;;;;;3.97;3.45;;;;;;;14.44;58.34;100361.78;5078710;28;20043;-71
2021/10/17 03:51:20;;;;;;;5.13;2.70;;;;;;;14.43;58.36;100363.75;5079448;28;20482;-71
2021/10/17 03:53:45;;;;;;;3.00;2.70;;;;;;;14.31;59.06;100358.44;5079038;28;20074;-70
2021/10/17 03:56:11;;;;;;;5.28;4.43;;;;;;;14.32;58.92;100362.84;5078885;28;20056;-70
2021/10/17 03:58:39;;;;;;;6.82;2.92;;;;;;;14.36;58.83;100360.91;5078950;28;20040;-71
2021/10/17 04:01:09;;;;;;;2.50;2.30;;;;;;;14.41;58.75;100361.34;5078911;28;20111;-70
2021/10/17 04:03:42;;;;;;;2.67;2.33;;;;;;;14.43;58.94;100369.38;5096729;28;20519;-70
2021/10/17 04:06:08;;;;;;;3.53;2.35;;;;;;;14.41;59.18;100369.75;5079110;28;20024;-70
2021/10/17 04:08:34;;;;;;;2.80;2.00;;;;;;;14.45;58.83;100374.59;5078911;28;20063;-70
2021/10/17 04:10:59;;;;;;;2.83;2.40;;;;;;;14.45;58.77;100381.00;5078701;28;20485;-70
2021/10/17 04:13:25;;;;;;;2.80;1.70;;;;;;;14.47;58.50;100369.41;5078651;28;20043;-70
2021/10/17 04:15:52;;;;;;;3.10;2.25;;;;;;;14.45;58.91;100369.81;5062108;28;20052;-70
2021/10/17 04:18:20;;;;;;;4.03;2.10;;;;;;;14.50;58.63;100377.88;5078574;28;20035;-70
2021/10/17 04:20:46;;;;;;;2.50;2.30;;;;;;;14.51;59.21;100371.09;5078471;28;20032;-72
2021/10/17 04:23:12;;;;;;;2.10;1.90;;;;;;;14.52;58.60;100383.88;5078792;28;20034;-72
2021/10/17 04:25:40;;;;;;;5.22;2.45;;;;;;;14.38;58.77;100378.09;5079043;28;20436;-70
2021/10/17 04:28:05;;;;;;;4.80;2.63;;;;;;;14.41;59.01;100377.34;5078404;28;20089;-71
2021/10/17 04:30:31;;;;;;;2.15;1.90;;;;;;;14.39;59.09;100383.34;5078905;28;20409;-71
2021/10/17 04:32:57;;;;;;;2.75;2.20;;;;;;;14.35;59.50;100376.09;5078543;28;20043;-71
2021/10/17 04:35:25;;;;;;;4.30;1.83;;;;;;;14.41;59.09;100380.16;5078353;28;20086;-70
2021/10/17 04:37:51;;;;;;;1.60;1.50;;;;;;;14.39;59.12;100376.94;5078515;28;20104;-70
2021/10/17 04:40:17;;;;;;;2.28;2.08;;;;;;;14.56;58.74;100383.94;5078146;28;20462;-70
2021/10/17 04:42:43;;;;;;;3.33;1.60;;;;;;;14.50;58.67;100383.47;5078413;28;20486;-70
2021/10/17 04:45:10;;;;;;;2.92;1.95;;;;;;;14.46;59.27;100388.19;5078377;28;20039;-70
2021/10/17 04:47:35;;;;;;;1.83;1.42;;;;;;;14.48;59.18;100385.84;5095263;28;20026;-73
2021/10/17 04:50:04;;;;;;;2.53;1.70;;;;;;;14.48;59.10;100391.44;5078280;28;20028;-70
2021/10/17 04:52:29;;;;;;;2.20;1.95;;;;;;;14.45;59.60;100391.41;5077947;28;20028;-70
2021/10/17 04:54:55;;;;;;;3.03;2.22;;;;;;;14.53;59.02;100393.91;5077910;28;20043;-71
2021/10/17 04:57:23;;;;;;;2.10;1.73;;;;;;;14.50;58.59;100389.09;5077889;28;20391;-70
2021/10/17 04:59:52;;;;;;;1.90;1.67;;;;;;;14.46;59.30;100399.41;5078257;28;20471;-71
2021/10/17 05:02:17;;;;;;;3.20;1.60;;;;;;;14.41;59.15;100400.53;5077802;28;20024;-71
2021/10/17 05:04:44;;;;;;;3.17;1.55;;;;;;;14.34;59.59;100399.69;5077828;28;20032;-71
2021/10/17 05:07:10;;;;;;;1.77;1.63;;;;;;;14.43;59.65;100400.16;5077768;28;20028;-70
2021/10/17 05:09:39;;;;;;;2.15;1.65;;;;;;;14.40;59.61;100398.94;5077596;28;20109;-71
2021/10/17 05:12:05;;;;;;;2.75;2.03;;;;;;;14.45;59.49;100408.19;5077619;28;20032;-70
2021/10/17 05:14:33;;;;;;;2.20;1.95;;;;;;;14.43;59.47;100408.56;5078164;28;20032;-70
2021/10/17 05:17:01;;;;;;;2.40;2.20;;;;;;;14.47;59.67;100412.22;5077553;28;20036;-70
2021/10/17 05:19:27;;;;;;;2.75;1.77;;;;;;;14.53;58.87;100407.91;5078006;28;20032;-70
2021/10/17 05:21:52;;;;;;;5.57;1.90;;;;;;;14.44;59.61;100406.59;5077444;28;20428;-69
2021/10/17 05:24:18;;;;;;;2.05;1.85;;;;;;;14.45;59.31;100414.59;5078122;28;20063;-72
2021/10/17 05:26:44;;;;;;;1.88;1.70;;;;;;;14.42;59.82;100416.16;5077331;28;20020;-71
2021/10/17 05:29:09;;;;;;;2.30;2.10;;;;;;;14.41;59.37;100413.75;5077826;28;20028;-71
2021/10/17 05:31:35;;;;;;;3.35;2.40;;;;;;;14.56;58.99;100409.13;5077061;28;20119;-71
2021/10/17 05:34:01;;;;;;;2.85;2.42;;;;;;;14.63;59.38;100420.41;5077490;28;20038;-72
2021/10/17 05:36:26;;;;;;;2.80;2.28;;;;;;;14.62;58.92;100416.00;5076875;28;20397;-72
2021/10/17 05:38:53;;;;;;;2.65;2.15;;;;;;;14.62;58.53;100414.00;5077065;28;20031;-72
2021/10/17 05:41:22;;;;;;;3.20;1.80;;;;;;;14.49;58.87;100426.69;5077444;28;20024;-70
2021/10/17 05:43:48;;;;;;;2.40;2.03;;;;;;;14.33;59.10;100426.88;5077300;28;20067;-71
2021/10/17 05:46:14;;;;;;;2.15;1.92;;;;;;;14.36;59.65;100426.09;5069263;28;20459;-70
2021/10/17 05:48:39;;;;;;;1.83;1.63;;;;;;;14.40;59.43;100429.72;5094130;28;20039;-70
2021/10/17 05:51:06;;;;;;;1.70;1.60;;;;;;;14.48;59.33;100427.84;5093708;28;20540;-71
2021/10/17 05:53:31;;;;;;;2.45;1.75;;;;;;;14.53;59.54;100426.69;5093634;28;20036;-70
2021/10/17 05:55:57;;;;;;;1.77;1.67;;;;;;;14.66;58.96;100425.25;5093903;28;20031;-73
2021/10/17 05:58:23;;;;;;;4.22;1.75;;;;;;;14.73;59.63;100430.91;5092225;28;20111;-76
2021/10/17 06:00:49;;;;;;;2.28;1.80;;;;;;;14.79;59.12;100431.34;5093194;28;20012;-71
2021/10/17 06:03:15;;;;;;;3.40;2.05;;;;;;;14.84;58.79;100437.41;5093349;28;20043;-72
2021/10/17 06:05:41;;;;;;;2.17;2.00;;;;;;;14.88;58.94;100443.84;5094058;28;20377;-72
2021/10/17 06:08:06;;;;;;;3.90;2.17;;;;;;;14.89;58.51;100444.66;5095358;28;20028;-72
2021/10/17 06:10:32;;;;;;;2.15;1.95;;;;;;;14.96;58.22;100455.94;5096510;28;20028;-71
2021/10/17 06:12:58;;;;;;;2.28;1.98;;;;;;;14.98;58.67;100447.16;5097358;28;20046;-71
2021/10/17 06:15:27;;;;;;;2.47;2.20;;;;;;;15.03;58.46;100452.41;5096779;28;20476;-72
2021/10/17 06:17:52;;;;;;;2.60;1.88;;;;;;;15.09;58.31;100454.47;5096537;28;20042;-71
2021/10/17 06:20:21;;;;;;;4.15;2.47;;;;;;;15.16;58.41;100465.72;5096437;28;20024;-72
2021/10/17 06:22:47;;;;;;;2.80;2.22;;;;;;;15.35;57.58;100461.09;5096569;28;20042;-72
2021/10/17 06:25:12;;;;;;;3.25;2.67;;;;;;;15.37;56.93;100459.50;5096018;28;20122;-72
2021/10/17 06:27:38;;;;;;;2.85;2.28;;;;;;;15.51;56.50;100458.81;5096186;28;20031;-74
2021/10/17 06:30:04;;;;;;;5.63;2.30;;;;;;;16.80;53.25;100459.44;5095855;28;20035;-74
2021/10/17 06:32:29;;;;;;;3.05;2.10;;;;;;;17.58;51.56;100464.28;5096298;28;20430;-73
2021/10/17 06:34:55;;;;;;;2.22;2.03;;;;;;;17.79;50.73;100469.94;5096281;28;20038;-73
2021/10/17 06:37:21;;;;;;;3.20;2.38;;;;;;;17.65;52.79;100470.72;5096232;28;20118;-76
2021/10/17 06:39:46;;;;;;;3.42;1.88;;;;;;;17.72;50.34;100479.16;5096354;28;20028;-70
2021/10/17 06:42:13;;;;;;;3.90;2.78;;;;;;;17.80;50.28;100477.16;5096197;28;20031;-70
2021/10/17 06:44:42;;;;;;;2.03;1.90;;;;;;;17.58;50.99;100481.97;5095249;28;20051;-70
2021/10/17 06:47:07;;;;;;;2.20;2.00;;;;;;;17.45;51.48;100480.78;5096411;28;20110;-71
2021/10/17 06:49:33;;;;;;;2.20;2.05;;;;;;;17.41;50.96;100494.03;5096153;28;20474;-70
2021/10/17 06:51:59;;;;;;;2.53;2.33;;;;;;;16.86;51.77;100500.00;5095558;28;20027;-71
2021/10/17 06:54:24;;;;;;;2.50;2.30;;;;;;;16.77;52.64;100494.75;5095573;28;20112;-73
2021/10/17 06:56:50;;;;;;;6.03;3.00;;;;;;;16.59;52.92;100491.06;5095818;28;20023;-72
2021/10/17 06:59:15;;;;;;;3.38;3.05;;;;;;;16.36;53.15;100489.38;5096137;28;20024;-70
2021/10/17 07:01:41;;;;;;;3.92;3.63;;;;;;;16.31;53.63;100503.00;5095947;28;20038;-70
2021/10/17 07:04:07;;;;;;;4.50;3.63;;;;;;;16.21;53.84;100502.53;5095845;28;20043;-71
2021/10/17 07:06:33;;;;;;;8.57;3.50;;;;;;;16.11;54.38;100494.88;5095705;28;20122;-70
2021/10/17 07:08:58;;;;;;;3.85;3.30;;;;;;;16.28;54.42;100498.16;5091630;28;20379;-72
2021/10/17 07:13:59;;;;;;;4.72;3.72;;;;;;;16.17;54.01;100512.94;5557915;22;20115;-71
2021/10/17 07:16:25;;;;;;;4.50;3.38;;;;;;;15.91;55.08;100508.38;5035339;28;20041;-70
2021/10/17 07:18:50;;;;;;;3.72;3.42;;;;;;;16.07;54.49;100508.06;5035371;28;20029;-70
2021/10/17 07:21:16;;;;;;;4.28;3.53;;;;;;;16.20;54.67;100511.38;5035561;28;20044;-71
2021/10/17 07:23:42;;;;;;;4.63;3.38;;;;;;;16.40;54.27;100514.66;5035252;28;20124;-70
2021/10/17 07:26:07;;;;;;;3.90;3.60;;;;;;;16.25;53.51;100516.59;5035445;28;20035;-70
2021/10/17 07:28:33;;;;;;;4.28;3.70;;;;;;;16.47;53.38;100523.94;5035485;28;20039;-71
2021/10/17 07:30:59;;;;;;;3.60;3.30;;;;;;;16.58;53.27;100521.16;5035226;28;20386;-70
2021/10/17 07:33:28;;;;;;;4.30;3.83;;;;;;;16.40;54.03;100514.66;5035816;28;20029;-70
2021/10/17 07:35:57;;;;;;;4.13;3.72;;;;;;;16.68;53.29;100519.59;5035559;28;20474;-70
2021/10/17 07:38:23;;;;;;;3.70;3.40;;;;;;;16.82;52.80;100513.22;5035354;28;20120;-70
2021/10/17 07:40:49;;;;;;;5.35;3.33;;;;;;;16.97;52.44;100521.28;5034843;28;20036;-70
2021/10/17 07:43:15;;;;;;;4.25;3.25;;;;;;;17.16;51.77;100516.53;5035422;28;20037;-70
2021/10/17 07:45:43;;;;;;;7.13;6.43;;;;;;;17.29;51.29;100521.34;5035149;28;20064;-70
2021/10/17 07:48:10;;;;;;;4.43;3.75;;;;;;;17.43;51.07;100514.13;5052743;28;20040;-70
2021/10/17 07:50:38;;;;;;;4.15;3.33;;;;;;;17.55;50.74;100522.97;5035511;28;20037;-71
2021/10/17 07:53:07;;;;;;;4.18;3.05;;;;;;;17.70;49.85;100523.75;5036054;28;20096;-70
2021/10/17 07:55:38;;;;;;;3.38;2.95;;;;;;;18.20;49.03;100534.16;5035235;28;20367;-70
2021/10/17 07:58:04;;;;;;;3.67;3.38;;;;;;;19.80;45.09;100510.66;5035032;28;20087;-71
2021/10/17 08:00:33;;;;;;;2.92;2.60;;;;;;;21.02;41.77;100517.72;5035044;28;20036;-71
2021/10/17 08:02:58;;;;;;;2.40;2.20;;;;;;;21.86;39.78;100519.63;5034925;28;20528;-70
2021/10/17 08:05:24;;;;;;;2.58;2.38;;;;;;;22.79;37.74;100520.63;5034679;28;20033;-70
2021/10/17 08:07:53;;;;;;;2.55;2.35;;;;;;;23.49;37.24;100523.88;5053005;28;20175;-70
2021/10/17 08:10:21;;;;;;;2.28;2.08;;;;;;;24.16;35.19;100525.41;5052990;28;20076;-71
2021/10/17 08:12:49;;;;;;;3.20;2.53;;;;;;;24.55;33.66;100525.16;5034780;28;20033;-71
2021/10/17 08:15:15;;;;;;;2.45;2.20;;;;;;;24.90;32.76;100531.00;5047195;28;20498;-71
2021/10/17 08:17:40;;;;;;;6.53;1.70;;;;;;;24.27;33.09;100525.91;5051296;28;20028;-72
2021/10/17 08:20:10;;;;;;;3.40;2.00;;;;;;;24.02;33.90;100526.59;5051451;28;20025;-72
2021/10/17 08:22:38;;;;;;;1.55;1.45;;;;;;;23.13;34.93;100531.66;5054508;28;20035;-72
2021/10/17 08:25:08;;;;;;;1.90;1.50;;;;;;;23.21;35.17;100535.91;5055152;28;20479;-71
2021/10/17 08:27:34;;;;;;;2.85;1.60;;;;;;;22.55;35.38;100534.91;5054897;28;20032;-71
2021/10/17 08:30:04;;;;;;;3.17;1.92;;;;;;;22.35;36.33;100539.75;5055283;28;20029;-70
2021/10/17 08:32:33;;;;;;;2.22;2.03;;;;;;;22.19;36.78;100529.94;5054549;28;20033;-70
2021/10/17 08:35:01;;;;;;;3.75;2.67;;;;;;;22.49;37.33;100531.78;5054619;28;20070;-70
2021/10/17 08:37:27;;;;;;;2.72;2.40;;;;;;;23.68;34.96;100524.25;5054573;28;20032;-70
2021/10/17 08:39:53;;;;;;;2.63;2.25;;;;;;;23.83;34.40;100528.31;5054685;28;20025;-70
2021/10/17 08:42:19;;;;;;;4.20;2.33;;;;;;;24.04;34.40;100533.44;5055329;28;20458;-70
2021/10/17 08:44:45;;;;;;;3.20;2.80;;;;;;;23.52;35.02;100531.50;5054430;28;20451;-70
2021/10/17 08:47:13;;;;;;;3.30;3.00;;;;;;;22.97;36.03;100535.25;5054388;28;20059;-70
2021/10/17 08:49:41;;;;;;;3.05;2.65;;;;;;;22.94;36.04;100539.75;5054277;28;20043;-71
2021/10/17 08:52:10;;;;;;;3.08;2.78;;;;;;;22.99;34.63;100529.94;5054567;28;20493;-71
2021/10/17 08:54:39;;;;;;;2.60;2.40;;;;;;;23.81;34.31;100530.00;5054519;28;20075;-71
2021/10/17 08:57:06;;;;;;;2.45;2.25;;;;;;;23.91;33.59;100524.03;5054044;28;20028;-71
2021/10/17 08:59:35;;;;;;;2.65;2.45;;;;;;;24.59;32.22;100530.72;5054240;28;20029;-71
2021/10/17 09:02:16;;;;;;;2.88;2.42;;;;;;;24.43;31.97;100528.72;5054835;28;20033;-71
2021/10/17 09:04:42;;;;;;;2.13;1.92;;;;;;;25.00;30.50;100524.19;5054268;28;20040;-71
2021/10/17 09:07:19;;;;;;;1.98;1.88;;;;;;;25.85;29.05;100519.84;5054110;28;20116;-71
2021/10/17 09:10:06;;;;;;;2.38;2.17;;;;;;;25.67;28.98;100528.94;5054618;28;20415;-71
2021/10/17 09:12:35;;;;;;;3.67;3.10;;;;;;;25.37;30.09;100527.53;5054289;28;20028;-70
2021/10/17 09:15:20;;;;;;;2.55;2.35;;;;;;;24.62;30.73;100520.50;5053762;28;20076;-71
2021/10/17 09:18:23;;;;;;;1.77;1.67;;;;;;;24.25;30.81;100531.25;5054244;28;20474;-71
2021/10/17 09:20:51;;;;;;;2.00;1.80;;;;;;;24.44;31.11;100518.94;5054126;28;20052;-71
2021/10/17 09:23:22;;;;;;;2.70;2.25;;;;;;;23.45;32.72;100534.53;5054612;28;20161;-70
2021/10/17 09:25:50;;;;;;;3.53;2.33;;;;;;;22.63;34.33;100541.22;5053658;28;20087;-71
2021/10/17 09:28:28;;;;;;;1.80;1.70;;;;;;;22.52;33.81;100538.59;5053630;28;20024;-71
2021/10/17 09:31:19;;;;;;;3.10;1.88;;;;;;;22.66;33.64;100541.16;5054951;28;20040;-70
2021/10/17 09:33:45;;;;;;;2.67;2.47;;;;;;;22.19;34.70;100518.59;5053205;28;20017;-70
2021/10/17 09:36:22;;;;;;;1.65;1.55;;;;;;;22.69;33.86;100533.78;5053551;28;20032;-70
2021/10/17 09:38:52;;;;;;;1.60;1.50;;;;;;;22.93;33.04;100538.16;5055172;28;20028;-70
2021/10/17 09:41:32;;;;;;;2.25;1.80;;;;;;;23.15;33.25;100544.16;5054153;28;20401;-70
2021/10/17 09:44:02;;;;;;;3.40;1.77;;;;;;;22.17;35.92;100543.75;5053608;28;20033;-69
2021/10/17 09:46:31;;;;;;;3.22;1.92;;;;;;;22.09;35.94;100533.75;5054533;28;20028;-70
2021/10/17 09:48:59;;;;;;;2.85;2.10;;;;;;;22.03;36.16;100529.03;5054018;28;20029;-69
2021/10/17 09:51:29;;;;;;;3.03;2.65;;;;;;;21.89;36.49;100539.38;5053348;28;20060;-70
2021/10/17 09:53:57;;;;;;;3.58;2.50;;;;;;;21.62;36.27;100538.63;5053667;28;20047;-69
2021/10/17 09:56:38;;;;;;;2.35;2.15;;;;;;;20.86;37.98;100549.44;5053480;28;20032;-69
2021/10/17 09:59:12;;;;;;;2.58;2.38;;;;;;;21.04;37.79;100538.72;5052725;28;20060;-70
2021/10/17 10:01:40;;;;;;;2.45;2.25;;;;;;;21.87;36.47;100541.03;5054677;28;20547;-70
2021/10/17 10:04:10;;;;;;;3.22;2.65;;;;;;;20.86;38.72;100538.94;5053037;28;20037;-69
2021/10/17 10:06:36;;;;;;;4.10;3.15;;;;;;;21.11;38.39;100535.75;5054183;28;20103;-69
2021/10/17 10:09:07;;;;;;;3.30;3.00;;;;;;;20.48;39.71;100543.88;5053045;28;20033;-70
2021/10/17 10:11:34;;;;;;;4.05;3.08;;;;;;;20.38;40.38;100539.13;5054106;28;20021;-70
2021/10/17 10:14:06;;;;;;;2.80;2.55;;;;;;;20.34;39.94;100539.16;5054157;28;20060;-69
2021/10/17 10:16:33;;;;;;;3.20;2.17;;;;;;;20.23;40.35;100541.28;5036256;28;20028;-70
2021/10/17 10:19:07;;;;;;;3.75;3.33;;;;;;;20.02;41.03;100544.34;5054396;28;20029;-70
2021/10/17 10:21:36;;;;;;;2.70;2.35;;;;;;;20.04;41.14;100542.72;5036209;28;20032;-70
2021/10/17 10:24:09;;;;;;;4.80;2.83;;;;;;;19.84;41.74;100538.88;5036152;28;20029;-70
2021/10/17 10:26:36;;;;;;;2.00;1.90;;;;;;;20.03;41.29;100534.69;5054649;28;20479;-70
2021/10/17 10:29:05;;;;;;;2.13;1.92;;;;;;;20.45;40.63;100541.06;5036146;28;20064;-71
2021/10/17 10:31:52;;;;;;;3.13;2.72;;;;;;;20.07;41.80;100541.06;5053991;28;20035;-71
2021/10/17 10:34:23;;;;;;;3.13;2.83;;;;;;;20.25;41.31;100541.69;5035667;28;20124;-71
2021/10/17 10:36:53;;;;;;;2.60;2.40;;;;;;;20.44;40.58;100534.59;5035978;28;20021;-71
2021/10/17 10:39:24;;;;;;;3.97;2.72;;;;;;;20.52;40.57;100543.84;5036418;28;20036;-71
2021/10/17 10:41:51;;;;;;;2.60;2.28;;;;;;;21.11;39.46;100532.13;5054238;28;20064;-70
2021/10/17 10:44:21;;;;;;;2.78;2.50;;;;;;;21.70;38.25;100526.75;5035219;28;20029;-71
2021/10/17 10:46:49;;;;;;;2.90;2.40;;;;;;;21.99;37.96;100531.91;5035336;28;20057;-72
2021/10/17 10:49:37;;;;;;;2.78;2.58;;;;;;;21.33;38.77;100524.94;5035800;28;20451;-71
2021/10/17 10:52:05;;;;;;;2.70;2.30;;;;;;;20.75;39.77;100524.16;5035892;28;20021;-71
2021/10/17 10:54:36;;;;;;;2.50;2.30;;;;;;;20.96;39.61;100522.25;5036461;28;20029;-71
2021/10/17 10:57:05;;;;;;;3.78;2.75;;;;;;;20.62;39.99;100521.09;5036337;28;20444;-70
2021/10/17 10:59:59;;;;;;;4.20;2.72;;;;;;;20.82;39.88;100524.03;5036053;28;20120;-71
2021/10/17 11:02:25;;;;;;;2.75;2.50;;;;;;;20.96;39.98;100523.06;5035188;28;20027;-71
2021/10/17 11:04:53;;;;;;;3.88;3.17;;;;;;;20.81;40.12;100522.44;5036349;28;20045;-71
2021/10/17 11:07:23;;;;;;;3.20;2.88;;;;;;;20.50;40.91;100515.97;5036260;28;20025;-71
2021/10/17 11:09:52;;;;;;;6.65;2.40;;;;;;;20.23;41.77;100515.88;5053718;28;20041;-70
2021/10/17 11:12:42;;;;;;;2.70;2.42;;;;;;;20.68;41.23;100510.13;5035400;28;20094;-70
2021/10/17 11:15:10;;;;;;;3.90;3.22;;;;;;;20.33;41.85;100526.25;5020348;28;20563;-70
2021/10/17 11:17:36;;;;;;;3.85;3.35;;;;;;;19.87;42.95;100521.91;5015728;28;20506;-70
2021/10/17 11:20:04;;;;;;;6.53;5.05;;;;;;;20.07;42.57;100519.25;5015629;28;20029;-70
2021/10/17 11:22:37;;;;;;;8.98;6.32;;;;;;;20.15;42.52;100515.16;5033535;28;20026;-70
2021/10/17 11:25:06;;;;;;;8.27;6.30;;;;;;;20.18;42.42;100519.16;5015757;28;20029;-71
2021/10/17 11:27:34;;;;;;;7.18;4.90;;;;;;;20.13;42.88;100516.78;5015147;28;20026;-72
2021/10/17 11:30:05;;;;;;;5.38;4.57;;;;;;;19.82;43.42;100516.72;5015531;28;20120;-71